createdAt,value
2022-08-20T00:02:26.254Z,1135.63
2022-08-20T00:04:53.906Z,1080.17
2022-08-20T00:07:21.473Z,1139.27
2022-08-20T00:09:49.065Z,1157.40
2022-08-20T00:12:18.183Z,967.83
2022-08-20T00:14:47.247Z,1079.90
2022-08-20T00:17:14.877Z,879.07
2022-08-20T00:19:42.486Z,1186.97
2022-08-20T00:22:10.051Z,1118.17
2022-08-20T00:24:37.707Z,1129.13
2022-08-20T00:27:05.388Z,1140.17
2022-08-20T00:29:33.096Z,1082.53
2022-08-20T00:32:02.082Z,921.03
2022-08-20T00:34:30.149Z,1121.60
2022-08-20T00:36:57.907Z,1231.17
2022-08-20T00:39:25.481Z,1034.67
2022-08-20T00:41:53.084Z,1202.93
2022-08-20T00:44:22.833Z,1077.23
2022-08-20T00:46:51.101Z,941.07
2022-08-20T00:49:24.635Z,1246.03
2022-08-20T00:51:57.501Z,1136.63
2022-08-20T00:54:30.104Z,2266.67
2022-08-20T00:56:59.496Z,2266.67
2022-08-20T00:59:30.048Z,2266.67
2022-08-20T01:01:58.605Z,2266.67
2022-08-20T01:04:28.619Z,2266.67
2022-08-20T01:06:56.787Z,1531.90
2022-08-20T01:09:50.110Z,746.80
2022-08-20T01:12:13.858Z,750.23
2022-08-20T01:14:46.410Z,631.23
2022-08-20T01:17:22.207Z,689.63
2022-08-20T01:19:54.295Z,925.23
2022-08-20T01:22:43.150Z,819.40
2022-08-20T01:25:26.752Z,690.43
2022-08-20T01:27:57.631Z,705.03
2022-08-20T01:30:27.927Z,663.70
2022-08-20T01:32:56.119Z,1194.37
2022-08-20T01:35:25.963Z,1199.10
2022-08-20T01:37:54.210Z,1184.27
2022-08-20T01:40:44.808Z,1234.97
2022-08-20T01:43:13.896Z,1074.70
2022-08-20T01:45:41.583Z,1258.60
2022-08-20T01:48:09.577Z,1177.73
2022-08-20T01:50:41.741Z,1164.93
2022-08-20T01:53:18.251Z,1070.90
2022-08-20T01:55:45.977Z,1151.83
2022-08-20T01:58:15.039Z,1123.30
2022-08-20T02:00:43.031Z,1152.10
2022-08-20T02:03:10.679Z,1223.33
2022-08-20T02:05:38.345Z,1125.20
2022-08-20T02:08:06.632Z,1186.37
2022-08-20T02:10:35.865Z,1149.03
2022-08-20T02:13:05.164Z,1288.87
2022-08-20T02:15:37.155Z,1190.03
2022-08-20T02:18:10.194Z,1041.80
2022-08-20T02:20:38.687Z,1064.37
2022-08-20T02:23:07.551Z,1085.70
2022-08-20T02:25:37.146Z,1066.20
2022-08-20T02:28:07.554Z,1058.43
2022-08-20T02:30:39.443Z,1058.17
2022-08-20T02:33:10.224Z,1093.17
2022-08-20T02:35:39.200Z,1096.67
2022-08-20T02:38:06.859Z,1081.10
2022-08-20T02:40:35.752Z,1104.70
2022-08-20T02:43:04.287Z,1116.10
2022-08-20T02:45:37.153Z,1100.60
2022-08-20T02:48:06.634Z,1113.53
2022-08-20T02:50:34.354Z,1116.57
2022-08-20T02:53:01.959Z,1107.07
2022-08-20T02:55:29.563Z,1142.93
2022-08-20T02:57:59.078Z,1157.37
2022-08-20T03:00:28.311Z,1148.57
2022-08-20T03:02:56.422Z,1129.50
2022-08-20T03:05:25.415Z,1143.30
2022-08-20T03:07:56.447Z,1102.47
2022-08-20T03:10:25.692Z,986.60
2022-08-20T03:12:53.577Z,725.87
2022-08-20T03:15:21.621Z,242.63
2022-08-20T03:17:49.400Z,1095.20
2022-08-20T03:20:17.411Z,1114.47
2022-08-20T03:22:51.420Z,1041.53
2022-08-20T03:25:19.409Z,903.03
2022-08-20T03:27:54.386Z,974.80
2022-08-20T03:30:23.659Z,987.57
2022-08-20T03:32:51.704Z,1060.50
2022-08-20T03:35:21.464Z,997.13
2022-08-20T03:37:50.971Z,1023.07
2022-08-20T03:40:21.748Z,1076.90
2022-08-20T03:42:49.331Z,707.63
2022-08-20T03:45:20.338Z,783.23
2022-08-20T03:47:48.613Z,1142.23
2022-08-20T03:50:22.660Z,1403.20
2022-08-20T03:52:51.822Z,1192.70
2022-08-20T03:55:19.590Z,1201.83
2022-08-20T03:57:51.886Z,1131.73
2022-08-20T04:00:22.015Z,1380.97
2022-08-20T04:02:49.652Z,1076.13
2022-08-20T04:05:17.584Z,1084.07
2022-08-20T04:07:45.343Z,1104.17
2022-08-20T04:10:14.458Z,1992.13
2022-08-20T04:12:53.017Z,656.77
2022-08-20T04:15:22.187Z,524.37
2022-08-20T04:17:51.103Z,661.03
2022-08-20T04:20:22.754Z,579.13
2022-08-20T04:22:58.598Z,461.70
2022-08-20T04:25:29.613Z,1653.43
2022-08-20T04:27:58.300Z,2266.67
2022-08-20T04:30:27.000Z,2266.67
2022-08-20T04:32:56.062Z,1498.87
2022-08-20T04:35:25.143Z,1915.97
2022-08-20T04:37:59.607Z,1509.47
2022-08-20T04:40:47.239Z,1676.17
2022-08-20T04:43:15.364Z,2266.67
2022-08-20T04:45:43.756Z,2266.67
2022-08-20T04:48:14.982Z,2266.67
2022-08-20T04:50:45.141Z,2059.80
2022-08-20T04:53:14.904Z,1756.73
2022-08-20T04:55:44.518Z,1662.50
2022-08-20T04:58:13.819Z,1805.57
2022-08-20T05:00:41.661Z,1244.43
2022-08-20T05:03:09.245Z,1636.63
2022-08-20T05:05:36.963Z,1718.73
2022-08-20T05:08:04.994Z,1779.90
2022-08-20T05:10:32.711Z,1736.63
2022-08-20T05:13:01.671Z,1690.07
2022-08-20T05:15:29.286Z,1975.03
2022-08-20T05:18:00.470Z,1859.93
2022-08-20T05:20:29.680Z,1890.57
2022-08-20T05:22:57.267Z,1859.60
2022-08-20T05:25:24.989Z,1785.20
2022-08-20T05:27:57.473Z,1847.20
2022-08-20T05:30:26.655Z,2008.77
2022-08-20T05:32:54.544Z,1960.80
2022-08-20T05:35:22.120Z,1959.97
2022-08-20T05:37:49.760Z,1902.70
2022-08-20T05:40:17.400Z,2121.83
2022-08-20T05:42:45.304Z,1912.03
2022-08-20T05:45:12.934Z,1941.37
2022-08-20T05:47:42.943Z,2073.53
2022-08-20T05:50:20.750Z,2135.10
2022-08-20T05:52:51.405Z,2101.77
2022-08-20T05:55:19.151Z,2059.83
2022-08-20T05:57:46.760Z,1537.50
2022-08-20T06:00:15.295Z,2026.77
2022-08-20T06:03:01.750Z,2063.27
2022-08-20T06:05:29.360Z,1260.83
2022-08-20T06:08:07.280Z,1634.00
2022-08-20T06:10:35.927Z,1645.80
2022-08-20T06:13:03.887Z,2240.90
2022-08-20T06:15:32.345Z,2266.67
2022-08-20T06:18:01.669Z,2266.67
2022-08-20T06:20:29.805Z,2266.67
2022-08-20T06:22:57.595Z,2266.67
2022-08-20T06:25:25.192Z,2176.27
2022-08-20T06:27:52.869Z,2266.67
2022-08-20T06:30:20.553Z,2266.67
2022-08-20T06:32:49.186Z,2266.67
2022-08-20T06:35:20.072Z,1783.60
2022-08-20T06:37:48.478Z,2266.67
2022-08-20T06:40:19.482Z,2266.67
2022-08-20T06:42:48.922Z,2257.77
2022-08-20T06:45:18.608Z,2206.27
2022-08-20T06:47:47.662Z,2266.67
2022-08-20T06:50:19.542Z,2266.67
2022-08-20T06:52:52.986Z,2238.93
2022-08-20T06:55:21.936Z,2266.67
2022-08-20T06:57:57.364Z,2266.67
2022-08-20T07:00:24.965Z,2266.67
2022-08-20T07:02:52.673Z,2266.67
2022-08-20T07:05:21.827Z,220.37
2022-08-20T07:07:50.987Z,421.33
2022-08-20T07:10:19.959Z,802.33
2022-08-20T07:12:50.927Z,870.67
2022-08-20T07:15:19.903Z,954.83
2022-08-20T07:17:50.338Z,380.50
2022-08-20T07:20:18.163Z,726.67
2022-08-20T07:22:47.083Z,536.00
2022-08-20T07:25:16.968Z,1206.27
2022-08-20T07:27:44.736Z,514.90
2022-08-20T07:30:32.832Z,1269.60
2022-08-20T07:33:20.455Z,926.40
2022-08-20T07:35:49.060Z,1325.23
2022-08-20T07:38:23.897Z,1324.87
2022-08-20T07:40:52.442Z,2199.20
2022-08-20T07:43:21.442Z,2266.67
2022-08-20T07:45:52.140Z,2252.83
2022-08-20T07:48:27.932Z,2266.67
2022-08-20T07:50:59.943Z,2266.67
2022-08-20T07:53:33.543Z,2266.67
2022-08-20T07:56:05.463Z,1892.43
2022-08-20T07:58:35.263Z,1902.00
2022-08-20T08:01:02.903Z,2266.67
2022-08-20T08:03:39.415Z,2266.67
2022-08-20T08:06:28.478Z,2266.67
2022-08-20T08:08:59.395Z,2266.67
2022-08-20T08:11:27.062Z,1919.43
2022-08-20T08:13:54.747Z,1385.33
2022-08-20T08:16:22.630Z,2266.67
2022-08-20T08:18:53.089Z,2266.67
2022-08-20T08:21:23.400Z,2266.67
2022-08-20T08:23:51.111Z,1325.83
2022-08-20T08:26:22.323Z,2266.67
2022-08-20T08:28:50.252Z,2173.30
2022-08-20T08:31:17.944Z,2266.67
2022-08-20T08:33:45.607Z,2021.50
2022-08-20T08:36:15.370Z,2266.67
2022-08-20T08:38:44.635Z,2266.67
2022-08-20T08:41:17.520Z,2266.67
2022-08-20T08:43:48.443Z,1926.47
2022-08-20T08:46:18.955Z,2121.77
2022-08-20T08:48:47.715Z,979.20
2022-08-20T08:51:18.111Z,952.23
2022-08-20T08:53:49.051Z,906.10
2022-08-20T08:56:16.660Z,927.63
2022-08-20T08:58:44.896Z,993.17
2022-08-20T09:01:54.153Z,937.57
2022-08-20T09:04:05.885Z,978.77
2022-08-20T09:06:33.979Z,880.87
2022-08-20T09:09:03.386Z,1006.67
2022-08-20T09:11:31.493Z,851.50
2022-08-20T09:13:59.201Z,986.43
2022-08-20T09:16:30.056Z,881.47
2022-08-20T09:19:16.539Z,904.33
2022-08-20T09:21:44.395Z,935.67
2022-08-20T09:24:11.983Z,1025.65
2022-08-20T09:26:39.656Z,996.93
2022-08-20T09:29:07.280Z,1015.73
2022-08-20T09:31:36.468Z,891.73
2022-08-20T09:34:06.187Z,911.57
2022-08-20T09:36:35.167Z,888.80
2022-08-20T09:39:03.527Z,868.83
2022-08-20T09:41:32.930Z,912.57
2022-08-20T09:44:01.499Z,947.63
2022-08-20T09:46:29.093Z,907.53
2022-08-20T09:48:58.049Z,1016.60
2022-08-20T09:51:25.712Z,1044.20
2022-08-20T09:53:53.357Z,1059.87
2022-08-20T09:56:20.982Z,1049.80
2022-08-20T09:58:50.624Z,1048.53
2022-08-20T10:01:19.925Z,1053.27
2022-08-20T10:03:49.166Z,1019.43
2022-08-20T10:06:20.665Z,1031.27
2022-08-20T10:08:49.033Z,1048.53
2022-08-20T10:11:18.012Z,1106.63
2022-08-20T10:13:45.829Z,1039.77
2022-08-20T10:16:14.203Z,813.83
2022-08-20T10:18:41.806Z,665.10
2022-08-20T10:21:11.081Z,563.87
2022-08-20T10:23:40.072Z,956.47
2022-08-20T10:26:08.424Z,794.23
2022-08-20T10:28:36.047Z,2134.77
2022-08-20T10:31:04.797Z,2266.67
2022-08-20T10:33:32.423Z,2266.67
2022-08-20T10:36:07.186Z,2266.67
2022-08-20T10:38:34.803Z,883.47
2022-08-20T10:41:03.789Z,2266.67
2022-08-20T10:43:31.491Z,2266.67
2022-08-20T10:45:59.300Z,2266.67
2022-08-20T10:48:27.375Z,2212.00
2022-08-20T10:50:55.571Z,2266.67
2022-08-20T10:53:23.196Z,2266.67
2022-08-20T10:55:50.826Z,2266.67
2022-08-20T10:58:20.195Z,2215.67
2022-08-20T11:00:51.523Z,944.83
2022-08-20T11:03:19.227Z,2266.67
2022-08-20T11:05:47.176Z,2266.67
2022-08-20T11:08:14.909Z,2266.67
2022-08-20T11:11:01.022Z,2266.67
2022-08-20T11:13:30.000Z,2228.27
2022-08-20T11:15:57.683Z,2248.87
2022-08-20T11:18:25.382Z,844.33
2022-08-20T11:20:53.032Z,843.27
2022-08-20T11:23:20.898Z,825.17
2022-08-20T11:25:49.498Z,776.90
2022-08-20T11:28:17.312Z,876.97
2022-08-20T11:31:01.240Z,782.97
2022-08-20T11:33:28.887Z,870.07
2022-08-20T11:35:56.499Z,630.87
2022-08-20T11:38:24.517Z,699.93
2022-08-20T11:40:52.119Z,710.57
2022-08-20T11:43:19.742Z,1111.40
2022-08-20T11:45:52.677Z,1931.87
2022-08-20T11:48:22.391Z,2262.13
2022-08-20T11:50:50.801Z,1821.17
2022-08-20T11:53:18.415Z,1853.23
2022-08-20T11:55:48.541Z,1879.73
2022-08-20T11:58:16.543Z,2079.03
2022-08-20T12:00:44.120Z,2241.33
2022-08-20T12:03:12.505Z,2128.63
2022-08-20T12:05:44.388Z,2266.67
2022-08-20T12:08:25.301Z,2028.57
2022-08-20T12:10:56.429Z,1985.07
2022-08-20T12:13:30.466Z,2260.60
2022-08-20T12:16:09.236Z,2055.93
2022-08-20T12:18:37.091Z,2218.47
2022-08-20T12:21:04.875Z,2266.67
2022-08-20T12:23:32.475Z,2266.67
2022-08-20T12:26:02.712Z,2266.67
2022-08-20T12:28:30.789Z,1744.27
2022-08-20T12:30:58.664Z,1835.13
2022-08-20T12:33:27.722Z,2192.60
2022-08-20T12:35:55.325Z,2026.20
2022-08-20T12:38:22.968Z,1815.57
2022-08-20T12:40:50.531Z,1754.63
2022-08-20T12:43:21.658Z,1870.57
2022-08-20T12:45:52.062Z,1833.60
2022-08-20T12:48:20.770Z,2245.63
2022-08-20T12:50:50.578Z,1841.17
2022-08-20T12:53:18.505Z,1798.80
2022-08-20T12:55:46.290Z,1867.13
2022-08-20T12:58:13.907Z,2188.40
2022-08-20T13:00:50.298Z,1780.20
2022-08-20T13:03:19.555Z,2209.50
2022-08-20T13:05:47.352Z,2148.50
2022-08-20T13:08:17.821Z,1934.93
2022-08-20T13:10:46.314Z,1811.30
2022-08-20T13:13:15.198Z,1589.30
2022-08-20T13:15:45.227Z,1319.67
2022-08-20T13:18:12.827Z,1471.20
2022-08-20T13:20:40.468Z,1528.60
2022-08-20T13:23:08.147Z,1285.87
2022-08-20T13:25:37.119Z,1943.97
2022-08-20T13:28:05.783Z,2222.47
2022-08-20T13:30:34.046Z,2086.20
2022-08-20T13:33:01.834Z,1707.00
2022-08-20T13:35:29.548Z,2072.87
2022-08-20T13:37:57.153Z,2220.90
2022-08-20T13:40:25.794Z,1804.93
2022-08-20T13:42:54.801Z,1943.37
2022-08-20T13:45:22.407Z,1907.97
2022-08-20T13:47:53.646Z,1755.37
2022-08-20T13:50:22.834Z,1870.43
2022-08-20T13:52:50.478Z,1842.47
2022-08-20T13:55:20.796Z,1801.97
2022-08-20T13:57:49.484Z,1915.30
2022-08-20T14:00:21.836Z,2013.27
2022-08-20T14:02:59.251Z,1911.97
2022-08-20T14:05:26.903Z,1853.83
2022-08-20T14:07:54.586Z,1883.63
2022-08-20T14:10:26.356Z,1884.33
2022-08-20T14:12:54.040Z,1791.40
2022-08-20T14:15:23.033Z,1914.30
2022-08-20T14:17:52.539Z,1877.50
2022-08-20T14:20:23.891Z,2024.40
2022-08-20T14:22:52.434Z,1837.00
2022-08-20T14:25:21.824Z,1719.07
2022-08-20T14:27:50.574Z,1736.67
2022-08-20T14:30:20.994Z,2005.90
2022-08-20T14:32:50.142Z,1954.50
2022-08-20T14:35:18.052Z,1842.27
2022-08-20T14:37:49.047Z,1611.40
2022-08-20T14:40:18.743Z,2014.17
2022-08-20T14:42:51.694Z,1955.27
2022-08-20T14:45:22.843Z,2018.77
2022-08-20T14:47:54.248Z,1967.83
2022-08-20T14:50:25.000Z,1982.13
2022-08-20T14:52:52.635Z,1825.10
2022-08-20T14:55:22.411Z,1863.07
2022-08-20T14:57:50.728Z,1842.43
2022-08-20T15:00:20.313Z,1934.17
2022-08-20T15:02:48.381Z,1879.07
2022-08-20T15:05:17.918Z,1816.70
2022-08-20T15:07:48.122Z,1981.93
2022-08-20T15:10:20.064Z,1889.13
2022-08-20T15:12:47.935Z,1811.23
2022-08-20T15:15:16.737Z,1981.73
2022-08-20T15:17:46.290Z,1811.03
2022-08-20T15:20:19.932Z,1857.23
2022-08-20T15:22:50.822Z,1734.80
2022-08-20T15:25:20.143Z,1925.80
2022-08-20T15:27:48.036Z,1862.43
2022-08-20T15:30:19.831Z,1981.30
2022-08-20T15:32:51.411Z,1769.47
2022-08-20T15:35:22.471Z,1749.57
2022-08-20T15:37:51.813Z,1725.27
2022-08-20T15:40:27.869Z,1727.43
2022-08-20T15:42:56.415Z,1824.57
2022-08-20T15:45:24.111Z,1813.40
2022-08-20T15:47:54.889Z,1733.20
2022-08-20T15:50:34.823Z,1837.30
2022-08-20T15:53:07.281Z,1918.30
2022-08-20T15:55:37.265Z,1723.93
2022-08-20T15:58:11.245Z,2084.93
2022-08-20T16:00:43.780Z,1687.80
2022-08-20T16:03:29.101Z,1757.87
2022-08-20T16:05:59.675Z,1691.60
2022-08-20T16:08:46.464Z,1787.80
2022-08-20T16:11:20.763Z,1733.87
2022-08-20T16:13:50.931Z,1751.13
2022-08-20T16:16:24.900Z,1723.17
2022-08-20T16:18:53.834Z,1828.23
2022-08-20T16:21:28.001Z,1750.63
2022-08-20T16:23:57.571Z,1801.50
2022-08-20T16:26:41.044Z,1779.20
2022-08-20T16:29:15.076Z,1033.03
2022-08-20T16:31:47.440Z,1010.57
2022-08-20T16:34:34.457Z,1036.80
2022-08-20T16:37:06.816Z,998.20
2022-08-20T16:39:40.254Z,1045.30
2022-08-20T16:42:10.349Z,1059.33
2022-08-20T16:44:41.724Z,991.90
2022-08-20T16:47:16.759Z,992.37
2022-08-20T16:49:50.669Z,1030.10
2022-08-20T16:52:18.372Z,1002.27
2022-08-20T16:54:47.528Z,1006.03
2022-08-20T16:57:17.493Z,1000.60
2022-08-20T16:59:57.099Z,1018.90
2022-08-20T17:02:27.249Z,1024.20
2022-08-20T17:05:00.022Z,1018.53
2022-08-20T17:07:33.274Z,1002.47
2022-08-20T17:10:13.318Z,983.73
2022-08-20T17:12:41.134Z,1127.97
2022-08-20T17:15:09.584Z,1039.23
2022-08-20T17:17:38.249Z,1070.27
2022-08-20T17:20:19.872Z,574.87
2022-08-20T17:22:52.110Z,526.17
2022-08-20T17:25:23.384Z,1187.03
2022-08-20T17:27:51.253Z,1071.40
2022-08-20T17:30:24.703Z,1160.93
2022-08-20T17:32:58.891Z,1407.87
2022-08-20T17:35:33.800Z,1395.57
2022-08-20T17:38:03.023Z,1135.53
2022-08-20T17:40:35.905Z,612.07
2022-08-20T17:43:06.272Z,1156.83
2022-08-20T17:45:37.492Z,640.60
2022-08-20T17:48:08.564Z,601.23
2022-08-20T17:50:38.338Z,653.63
2022-08-20T17:53:14.113Z,627.03
2022-08-20T17:55:44.797Z,1434.70
2022-08-20T17:58:14.656Z,1341.47
2022-08-20T18:00:43.350Z,1599.53
2022-08-20T18:03:18.301Z,819.70
2022-08-20T18:05:49.459Z,868.30
2022-08-20T18:08:21.688Z,901.57
2022-08-20T18:10:58.558Z,1282.30
2022-08-20T18:13:36.665Z,1701.40
2022-08-20T18:16:16.845Z,1634.80
2022-08-20T18:18:56.731Z,680.40
2022-08-20T18:21:58.627Z,1679.33
2022-08-20T18:24:29.885Z,1220.57
2022-08-20T18:27:02.537Z,879.13
2022-08-20T18:29:32.741Z,1251.90
2022-08-20T18:32:02.417Z,1849.87
2022-08-20T18:34:39.932Z,1783.83
2022-08-20T18:37:22.722Z,1913.10
2022-08-20T18:39:51.228Z,1817.57
2022-08-20T18:42:29.300Z,2010.27
2022-08-20T18:44:57.570Z,1888.20
2022-08-20T18:47:27.877Z,2006.30
2022-08-20T18:50:16.171Z,1944.30
2022-08-20T18:52:47.284Z,1824.67
2022-08-20T18:55:29.471Z,1877.57
2022-08-20T18:58:00.513Z,2085.67
2022-08-20T19:00:34.621Z,2262.03
2022-08-20T19:03:11.492Z,2240.33
2022-08-20T19:05:50.647Z,2266.67
2022-08-20T19:08:23.894Z,2238.23
2022-08-20T19:10:57.890Z,2249.83
2022-08-20T19:13:54.735Z,2266.67
2022-08-20T19:16:27.098Z,2262.83
2022-08-20T19:18:56.263Z,2262.53
2022-08-20T19:21:26.336Z,2266.67
2022-08-20T19:23:56.916Z,2266.67
2022-08-20T19:26:28.255Z,2266.67
2022-08-20T19:29:00.591Z,2266.67
2022-08-20T19:31:30.274Z,2266.67
2022-08-20T19:34:03.916Z,2266.67
2022-08-20T19:36:47.315Z,2266.67
2022-08-20T19:39:16.810Z,2266.67
2022-08-20T19:41:48.525Z,2266.67
2022-08-20T19:44:31.466Z,2266.67
2022-08-20T19:46:59.993Z,2266.67
2022-08-20T19:49:30.969Z,1123.03
2022-08-20T19:52:15.114Z,1132.83
2022-08-20T19:54:49.196Z,1125.87
2022-08-20T19:57:17.989Z,1161.77
2022-08-20T19:59:55.590Z,1192.10
2022-08-20T20:02:25.023Z,1146.70
2022-08-20T20:04:55.504Z,1436.27
2022-08-20T20:07:27.914Z,1162.97
2022-08-20T20:09:58.392Z,1167.43
2022-08-20T20:12:26.119Z,1174.83
2022-08-20T20:14:55.741Z,1173.30
2022-08-20T20:17:25.427Z,1191.63
2022-08-20T20:19:58.985Z,1214.67
2022-08-20T20:22:29.131Z,1177.43
2022-08-20T20:25:05.802Z,1473.40
2022-08-20T20:27:36.423Z,1256.97
2022-08-20T20:30:08.003Z,1125.90
2022-08-20T20:32:35.700Z,1249.23
2022-08-20T20:35:05.755Z,1317.97
2022-08-20T20:37:45.350Z,1215.70
2022-08-20T20:40:23.855Z,1424.07
2022-08-20T20:42:59.054Z,1340.03
2022-08-20T20:45:33.435Z,1604.23
2022-08-20T20:48:01.955Z,1406.30
2022-08-20T20:50:32.530Z,1335.13
2022-08-20T20:53:00.231Z,1518.43
2022-08-20T20:55:29.776Z,1432.93
2022-08-20T20:57:57.923Z,1524.13
2022-08-20T21:00:28.850Z,1305.50
2022-08-20T21:02:58.452Z,1333.47
2022-08-20T21:05:30.580Z,1564.90
2022-08-20T21:08:00.746Z,1337.63
2022-08-20T21:10:36.399Z,1270.17
2022-08-20T21:13:04.227Z,1370.43
2022-08-20T21:15:32.609Z,1499.60
2022-08-20T21:18:02.927Z,1525.13
2022-08-20T21:20:30.821Z,1491.17
2022-08-20T21:22:58.939Z,1374.40
2022-08-20T21:25:27.599Z,1344.10
2022-08-20T21:27:55.779Z,1659.00
2022-08-20T21:30:24.659Z,1862.10
2022-08-20T21:32:52.745Z,1486.07
2022-08-20T21:35:22.065Z,1532.60
2022-08-20T21:37:49.965Z,1613.73
2022-08-20T21:40:18.228Z,1708.20
2022-08-20T21:42:49.531Z,1417.53
2022-08-20T21:45:19.705Z,1465.30
2022-08-20T21:47:48.839Z,1507.60
2022-08-20T21:50:18.965Z,1442.17
2022-08-20T21:52:55.498Z,1327.20
2022-08-20T21:55:28.545Z,1302.57
2022-08-20T21:57:56.262Z,1247.57
2022-08-20T22:00:48.279Z,1442.87
2022-08-20T22:03:16.912Z,1592.13
2022-08-20T22:05:48.149Z,1480.13
2022-08-20T22:08:17.623Z,1353.37
2022-08-20T22:10:45.615Z,1611.17
2022-08-20T22:13:14.015Z,1375.80
2022-08-20T22:15:41.604Z,1523.60
2022-08-20T22:18:09.361Z,1553.67
2022-08-20T22:20:37.062Z,705.83
2022-08-20T22:23:06.280Z,1560.47
2022-08-20T22:25:35.672Z,1451.63
2022-08-20T22:28:03.295Z,1582.17
2022-08-20T22:30:31.352Z,1444.63
2022-08-20T22:33:01.806Z,1583.00
2022-08-20T22:35:30.072Z,1619.23
2022-08-20T22:37:57.845Z,1680.33
2022-08-20T22:40:26.583Z,1759.50
2022-08-20T22:42:56.816Z,1690.00
2022-08-20T22:45:24.575Z,1645.67
2022-08-20T22:47:52.167Z,1645.00
2022-08-20T22:50:20.606Z,1777.33
2022-08-20T22:52:48.207Z,1665.40
2022-08-20T22:55:15.847Z,1706.53
2022-08-20T22:57:43.440Z,1665.00
2022-08-20T23:00:16.765Z,1770.23
2022-08-20T23:02:45.602Z,1737.37
2022-08-20T23:05:16.011Z,1650.87
2022-08-20T23:07:43.742Z,1881.80
2022-08-20T23:10:11.366Z,1760.63
2022-08-20T23:12:39.234Z,1758.07
2022-08-20T23:15:08.258Z,1742.53
2022-08-20T23:17:37.968Z,1689.70
2022-08-20T23:20:06.560Z,1797.10
2022-08-20T23:22:34.362Z,1656.30
2022-08-20T23:25:01.995Z,1706.17
2022-08-20T23:27:29.897Z,1761.87
2022-08-20T23:29:57.459Z,1698.00
2022-08-20T23:32:25.900Z,1708.67
2022-08-20T23:34:54.863Z,1826.23
2022-08-20T23:37:22.554Z,1606.07
2022-08-20T23:39:50.145Z,1719.00
2022-08-20T23:42:18.364Z,1740.83
2022-08-20T23:44:46.283Z,1834.67
2022-08-20T23:47:19.534Z,1750.27
2022-08-20T23:49:47.292Z,1788.00
2022-08-20T23:52:16.236Z,1749.47
2022-08-20T23:54:44.009Z,1826.40
2022-08-20T23:57:12.076Z,1754.63
2022-08-20T23:59:41.464Z,1853.10
